Time;durP1;ratioP1;P1;durP2;ratioP2;P2;SDS_P1;SDS_P2;PMS_P1;PMS_P2;Temp;Humidity;BMP_temperature;BMP_pressure;BME280_temperature;BME280_humidity;BME280_pressure;Samples;Min_cycle;Max_cycle;Signal;HPM_P1;HPM_P2
2021/11/09 00:00:43;;;;;;;;;68.25;52.75;;;;;10.73;62.12;102217.41;5018919;28;45423;-83
2021/11/09 00:03:10;;;;;;;;;67.75;52.25;;;;;10.72;62.19;102214.69;5019011;28;45358;-83
2021/11/09 00:06:08;;;;;;;;;71.00;55.50;;;;;10.70;62.12;102224.94;5001342;28;45529;-83
2021/11/09 00:08:35;;;;;;;;;72.00;56.00;;;;;10.67;62.18;102215.28;5017644;28;45365;-83
2021/11/09 00:11:01;;;;;;;;;67.25;54.75;;;;;10.63;62.57;102213.28;5000667;28;45356;-84
2021/11/09 00:13:27;;;;;;;;;68.25;53.00;;;;;10.59;62.70;102207.78;5000936;28;45352;-83
2021/11/09 00:15:53;;;;;;;;;70.25;54.50;;;;;10.57;62.51;102204.19;5001340;28;45435;-83
2021/11/09 00:18:20;;;;;;;;;68.50;53.25;;;;;10.56;62.54;102207.56;5018127;28;45444;-84
2021/11/09 00:20:45;;;;;;;;;66.00;53.00;;;;;10.57;62.60;102214.56;5018569;28;45336;-83
2021/11/09 00:23:12;;;;;;;;;67.50;54.00;;;;;10.55;62.50;102209.28;5018798;28;45560;-83
2021/11/09 00:25:40;;;;;;;;;70.00;55.25;;;;;10.59;62.93;102200.03;5018003;28;46487;-83
2021/11/09 00:28:07;;;;;;;;;62.50;49.25;;;;;10.57;62.82;102197.34;5017976;28;45753;-83
2021/11/09 00:30:35;;;;;;;;;70.00;53.25;;;;;10.59;62.54;102205.19;5018030;28;45502;-82
2021/11/09 00:33:02;;;;;;;;;69.00;54.00;;;;;10.59;62.97;102206.09;5000496;28;45349;-83
2021/11/09 00:35:29;;;;;;;;;67.75;55.25;;;;;10.58;62.75;102208.59;5017994;28;45191;-83
2021/11/09 00:37:57;;;;;;;;;67.50;54.25;;;;;10.56;62.59;102205.91;5018014;28;45770;-84
2021/11/09 00:40:26;;;;;;;;;65.50;50.50;;;;;10.52;62.41;102198.72;4999759;28;45579;-83
2021/11/09 00:42:51;;;;;;;;;67.75;52.75;;;;;10.50;62.62;102200.28;4999811;28;45693;-83
2021/11/09 00:45:17;;;;;;;;;63.50;51.00;;;;;10.50;62.40;102210.66;5000078;28;47526;-83
2021/11/09 00:47:43;;;;;;;;;66.25;53.50;;;;;10.47;62.61;102202.69;5018167;28;45273;-82
2021/11/09 00:50:11;;;;;;;;;65.50;50.75;;;;;10.41;62.85;102198.00;5017289;28;45413;-83
2021/11/09 00:52:38;;;;;;;;;57.25;45.25;;;;;10.42;62.71;102201.47;5018493;28;45440;-82
2021/11/09 00:55:06;;;;;;;;;58.75;47.75;;;;;10.41;62.99;102200.59;5017424;28;45425;-83
2021/11/09 00:57:31;;;;;;;;;63.50;51.75;;;;;10.40;63.27;102201.38;4999679;28;45842;-83
2021/11/09 00:59:57;;;;;;;;;63.00;49.75;;;;;10.37;62.90;102202.03;5017994;28;45282;-83
2021/11/09 01:02:23;;;;;;;;;61.75;49.00;;;;;10.34;63.26;102201.81;5017893;28;45479;-83
2021/11/09 01:04:48;;;;;;;;;61.75;49.75;;;;;10.40;63.15;102209.16;5016926;28;46066;-83
2021/11/09 01:07:14;;;;;;;;;64.75;51.25;;;;;10.40;63.27;102216.00;5017819;28;45348;-83
2021/11/09 01:09:40;;;;;;;;;61.25;48.25;;;;;10.38;63.04;102211.63;5017558;28;45308;-82
2021/11/09 01:12:06;;;;;;;;;62.75;48.25;;;;;10.37;63.34;102207.22;5017933;28;45962;-82
2021/11/09 01:14:32;;;;;;;;;59.25;47.25;;;;;10.38;63.26;102213.31;5017294;28;45498;-83
2021/11/09 01:16:58;;;;;;;;;63.75;49.25;;;;;10.35;63.23;102205.31;5017073;28;45371;-83
2021/11/09 01:19:24;;;;;;;;;59.75;49.25;;;;;10.34;63.09;102207.00;5017410;28;45451;-83
2021/11/09 01:21:51;;;;;;;;;61.50;48.50;;;;;10.34;63.18;102214.78;5017308;28;45602;-83
2021/11/09 01:24:18;;;;;;;;;63.25;49.50;;;;;10.31;63.18;102218.84;4998322;28;46822;-83
2021/11/09 01:26:46;;;;;;;;;64.25;50.75;;;;;10.30;63.38;102217.94;5017157;28;46098;-83
2021/11/09 01:29:13;;;;;;;;;61.50;49.75;;;;;10.31;63.11;102218.84;5017858;28;45321;-83
2021/11/09 01:31:40;;;;;;;;;61.75;49.25;;;;;10.31;63.19;102224.91;5016826;28;45536;-83
2021/11/09 01:34:07;;;;;;;;;62.00;50.00;;;;;10.28;63.22;102219.50;5016897;28;46306;-83
2021/11/09 01:36:33;;;;;;;;;67.00;53.00;;;;;10.27;63.16;102222.88;5016994;28;45725;-83
2021/11/09 01:38:59;;;;;;;;;62.75;50.75;;;;;10.19;63.23;102218.88;5017218;28;45305;-82
2021/11/09 01:41:26;;;;;;;;;68.75;53.00;;;;;10.20;63.12;102223.28;5017140;28;45279;-83
2021/11/09 01:43:53;;;;;;;;;58.75;46.50;;;;;10.18;63.32;102225.75;5016590;28;45551;-83
2021/11/09 01:46:19;;;;;;;;;58.00;47.50;;;;;10.17;63.32;102223.03;5017096;28;45540;-83
2021/11/09 01:48:46;;;;;;;;;62.25;50.00;;;;;10.14;63.36;102215.09;5017147;28;45487;-83
2021/11/09 01:51:14;;;;;;;;;68.25;52.75;;;;;10.15;63.60;102222.94;4999558;28;45308;-83
2021/11/09 01:53:42;;;;;;;;;64.00;50.25;;;;;10.16;63.53;102226.44;5016651;28;45669;-83
2021/11/09 01:56:11;;;;;;;;;39.50;34.75;;;;;10.12;62.54;102221.84;5009599;28;45409;-82
2021/11/09 01:58:37;;;;;;;;;62.00;51.00;;;;;10.13;63.12;102226.22;5017138;28;45337;-83
2021/11/09 02:01:11;;;;;;;;;63.25;49.75;;;;;10.09;62.93;102222.53;5016437;28;45614;-83
2021/11/09 02:03:40;;;;;;;;;59.25;48.75;;;;;10.07;62.91;102232.75;4998284;28;45479;-83
2021/11/09 02:06:06;;;;;;;;;61.50;48.50;;;;;10.03;62.88;102224.69;5016440;28;45828;-83
2021/11/09 02:08:32;;;;;;;;;63.50;49.25;;;;;10.01;62.91;102224.59;5016529;28;45484;-83
2021/11/09 02:10:58;;;;;;;;;62.00;48.25;;;;;9.95;62.96;102220.66;5017173;28;45524;-83
2021/11/09 02:13:24;;;;;;;;;61.25;48.50;;;;;9.94;62.86;102222.34;5016380;28;45565;-83
2021/11/09 02:15:51;;;;;;;;;55.50;45.75;;;;;9.89;63.61;102219.44;5016299;28;45848;-83
2021/11/09 02:18:18;;;;;;;;;59.75;48.75;;;;;9.89;63.40;102222.03;5016485;28;45514;-83
2021/11/09 02:20:56;;;;;;;;;59.75;49.25;;;;;9.89;63.07;102222.03;5015847;28;45183;-83
2021/11/09 02:23:22;;;;;;;;;60.00;47.00;;;;;9.87;63.54;102226.22;5015604;28;45471;-83
2021/11/09 02:25:48;;;;;;;;;58.75;46.25;;;;;9.92;63.66;102221.38;5015179;28;45849;-83
2021/11/09 02:28:14;;;;;;;;;57.50;47.50;;;;;9.93;63.33;102228.34;5016192;28;45407;-83
2021/11/09 02:30:39;;;;;;;;;63.50;49.50;;;;;9.95;63.23;102228.44;5016872;28;45364;-83
2021/11/09 02:33:05;;;;;;;;;57.25;44.50;;;;;9.88;63.04;102222.81;4998254;28;47548;-83
2021/11/09 02:35:31;;;;;;;;;55.25;44.25;;;;;9.94;63.27;102234.38;5015696;28;45442;-83
2021/11/09 02:37:59;;;;;;;;;56.75;45.50;;;;;9.93;63.03;102232.59;5015917;28;45278;-83
2021/11/09 02:40:25;;;;;;;;;43.50;37.50;;;;;9.90;63.18;102235.88;5016086;28;45213;-84
2021/11/09 02:42:57;;;;;;;;;54.50;43.25;;;;;9.87;63.07;102238.22;5015406;28;45966;-83
2021/11/09 02:45:44;;;;;;;;;56.50;44.25;;;;;9.79;63.35;102234.22;5016401;28;45795;-83
2021/11/09 02:48:15;;;;;;;;;58.25;46.25;;;;;9.74;63.19;102237.34;5015486;28;46258;-83
2021/11/09 02:50:45;;;;;;;;;54.00;44.25;;;;;9.74;63.37;102239.94;5016568;28;45365;-83
2021/11/09 02:53:59;;;;;;;;;55.75;44.75;;;;;9.74;63.60;102239.06;5016618;28;46623;-83
2021/11/09 02:56:17;;;;;;;;;57.00;46.25;;;;;9.74;63.51;102239.06;5011842;28;45309;-84
2021/11/09 02:58:59;;;;;;;;;56.00;45.00;;;;;9.70;63.56;102234.44;5007459;28;45512;-83
2021/11/09 03:01:43;;;;;;;;;52.75;42.75;;;;;9.71;63.52;102239.75;5024218;28;45215;-83
2021/11/09 03:12:45;;;;;;;;;55.25;44.75;;;;;9.67;63.60;102232.56;5012637;28;45658;-83
2021/11/09 03:15:13;;;;;;;;;53.50;44.75;;;;;9.68;63.88;102226.59;5015506;28;45454;-83
2021/11/09 03:17:49;;;;;;;;;53.75;44.00;;;;;9.66;63.86;102225.56;4994342;28;45876;-83
2021/11/09 03:20:24;;;;;;;;;53.50;44.75;;;;;9.70;63.82;102234.44;4999043;28;45389;-83
2021/11/09 03:44:44;;;;;;;;;56.75;45.75;;;;;9.89;63.22;102218.53;5019210;28;45551;-82
2021/11/09 03:47:13;;;;;;;;;57.25;45.75;;;;;9.86;62.82;102224.41;5018151;28;46165;-83
2021/11/09 03:49:41;;;;;;;;;53.75;45.00;;;;;9.90;63.39;102226.41;5018637;28;45314;-82
2021/11/09 03:52:19;;;;;;;;;57.25;44.00;;;;;9.85;63.56;102216.53;5001051;28;45265;-83
2021/11/09 03:54:48;;;;;;;;;56.00;44.75;;;;;9.88;63.34;102224.50;5019332;28;45213;-83
2021/11/09 03:59:51;;;;;;;;;57.50;46.00;;;;;9.87;63.14;102213.28;4998970;28;45416;-82
2021/11/09 04:02:38;;;;;;;;;55.00;44.50;;;;;9.90;63.37;102221.22;5015943;28;45263;-83
2021/11/09 04:05:08;;;;;;;;;55.25;45.75;;;;;9.86;63.15;102214.06;5007712;28;45592;-83
2021/11/09 04:10:21;;;;;;;;;55.25;46.00;;;;;9.89;63.10;102224.59;4998982;28;45362;-81
2021/11/09 04:20:38;;;;;;;;;46.50;39.00;;;;;9.73;63.55;102225.22;5018352;28;45955;-83
2021/11/09 05:11:08;;;;;;;;;52.75;43.00;;;;;9.40;63.40;102245.28;5016730;28;45778;-83
2021/11/09 05:13:33;;;;;;;;;53.75;43.00;;;;;9.43;63.27;102254.97;5016964;28;46053;-82
2021/11/09 05:15:59;;;;;;;;;56.50;44.25;;;;;9.38;63.04;102261.47;5017288;28;45348;-83
2021/11/09 05:18:25;;;;;;;;;53.75;42.25;;;;;9.30;63.15;102258.31;5017569;28;45566;-83
2021/11/09 05:20:51;;;;;;;;;51.50;42.25;;;;;9.31;63.09;102264.41;5016707;28;46435;-83
2021/11/09 05:23:18;;;;;;;;;53.50;45.00;;;;;9.28;63.05;102267.66;5017490;28;45567;-83
2021/11/09 05:25:43;;;;;;;;;51.25;40.00;;;;;9.24;63.36;102268.22;5017652;28;45397;-82
2021/11/09 05:28:10;;;;;;;;;47.00;40.25;;;;;9.24;63.24;102275.97;5017559;28;45329;-80
2021/11/09 05:30:41;;;;;;;;;52.50;43.00;;;;;9.20;63.14;102274.84;5016630;28;46146;-81
2021/11/09 05:33:07;;;;;;;;;54.50;42.25;;;;;9.22;63.03;102280.13;5016917;28;46094;-81
2021/11/09 05:35:34;;;;;;;;;51.75;41.50;;;;;9.22;63.20;102280.13;5017333;28;45350;-80
2021/11/09 05:38:02;;;;;;;;;50.50;40.50;;;;;9.19;63.44;102267.88;4999377;28;45538;-80
2021/11/09 05:40:32;;;;;;;;;56.75;42.50;;;;;9.24;63.58;102281.13;5017205;28;46214;-80
2021/11/09 05:42:59;;;;;;;;;52.00;44.25;;;;;9.24;63.55;102278.53;4995658;28;45561;-81
2021/11/09 05:45:25;;;;;;;;;48.50;38.75;;;;;9.17;63.70;102264.28;5010179;28;45481;-80
2021/11/09 05:47:51;;;;;;;;;48.00;41.75;;;;;9.20;63.48;102272.25;4999379;28;45518;-80
2021/11/09 05:50:18;;;;;;;;;52.25;43.25;;;;;9.22;63.85;102285.28;5016858;28;46310;-81
2021/11/09 05:52:43;;;;;;;;;50.75;41.25;;;;;9.23;63.78;102277.63;5017333;28;45816;-79
2021/11/09 05:55:09;;;;;;;;;55.25;42.25;;;;;9.26;63.60;102283.03;5016395;28;45230;-79
2021/11/09 05:57:35;;;;;;;;;56.00;43.25;;;;;9.33;63.43;102286.09;5017388;28;45550;-79
2021/11/09 06:00:03;;;;;;;;;50.50;40.00;;;;;9.32;63.58;102284.28;5016862;28;45732;-82
2021/11/09 06:02:29;;;;;;;;;52.00;40.50;;;;;9.35;63.17;102295.75;5016275;28;46037;-83
2021/11/09 06:04:54;;;;;;;;;46.50;40.00;;;;;9.31;62.72;102291.13;5016729;28;45332;-83
2021/11/09 06:07:20;;;;;;;;;53.75;41.25;;;;;9.27;62.73;102299.47;4998994;28;45726;-86
2021/11/09 06:09:46;;;;;;;;;53.25;44.25;;;;;9.29;63.02;102311.69;5017898;28;45581;-84
2021/11/09 06:12:12;;;;;;;;;54.00;41.00;;;;;9.25;62.77;102304.50;5016956;28;45358;-83
2021/11/09 06:14:37;;;;;;;;;50.75;40.25;;;;;9.21;62.81;102307.66;5015476;28;45249;-84
2021/11/09 06:17:04;;;;;;;;;51.25;40.00;;;;;9.15;63.13;102309.75;5017144;28;45214;-83
2021/11/09 06:19:29;;;;;;;;;51.25;42.25;;;;;9.22;62.99;102312.03;5016473;28;46372;-82
2021/11/09 06:21:55;;;;;;;;;51.00;42.50;;;;;9.18;63.08;102307.41;4998585;28;45400;-83
2021/11/09 06:24:23;;;;;;;;;52.75;42.75;;;;;9.20;62.88;102316.19;5016673;28;45476;-83
2021/11/09 06:26:49;;;;;;;;;51.75;42.50;;;;;9.26;62.70;102319.22;5017142;28;45643;-84
2021/11/09 06:29:15;;;;;;;;;49.75;42.25;;;;;9.26;62.69;102323.50;5016737;28;45412;-83
2021/11/09 06:31:42;;;;;;;;;49.50;41.00;;;;;9.23;62.58;102328.44;5018355;28;45688;-83
2021/11/09 06:34:08;;;;;;;;;51.50;40.00;;;;;9.21;62.62;102317.06;4998501;28;45273;-83
2021/11/09 06:36:34;;;;;;;;;50.75;41.50;;;;;9.21;62.67;102328.31;5016007;28;45258;-83
2021/11/09 06:39:00;;;;;;;;;54.25;43.50;;;;;9.17;62.74;102335.75;5013879;28;46143;-84
2021/11/09 06:41:26;;;;;;;;;54.00;43.75;;;;;9.15;62.74;102330.44;5016614;28;45441;-84
2021/11/09 06:43:51;;;;;;;;;50.00;42.50;;;;;9.17;62.76;102336.63;5006661;28;45293;-86
2021/11/09 06:46:17;;;;;;;;;57.25;43.25;;;;;9.14;62.76;102336.38;5020351;28;45428;-83
2021/11/09 06:48:45;;;;;;;;;50.00;42.00;;;;;9.11;62.85;102329.31;5013950;28;45471;-84
2021/11/09 06:51:12;;;;;;;;;51.50;42.25;;;;;9.07;62.76;102334.13;4998271;28;45453;-83
2021/11/09 06:53:38;;;;;;;;;50.75;41.75;;;;;9.02;62.68;102336.38;5018450;28;45333;-84
2021/11/09 06:56:04;;;;;;;;;53.00;40.00;;;;;9.01;62.86;102331.09;5021385;28;45549;-81
2021/11/09 06:58:31;;;;;;;;;52.25;41.75;;;;;8.96;63.02;102326.47;5017062;28;46390;-79
2021/11/09 07:00:57;;;;;;;;;52.25;42.25;;;;;8.99;63.09;102330.97;5014130;28;46019;-82
2021/11/09 07:03:22;;;;;;;;;54.50;43.25;;;;;8.95;63.02;102329.84;5017165;28;45328;-90
2021/11/09 07:05:49;;;;;;;;;51.75;41.25;;;;;9.00;62.87;102343.09;4999683;28;45444;-83
2021/11/09 07:08:14;;;;;;;;;49.00;40.50;;;;;9.02;62.93;102340.63;5020408;28;45668;-89
2021/11/09 07:10:40;;;;;;;;;50.25;42.00;;;;;8.97;62.90;102329.94;5024119;28;45446;-86
2021/11/09 07:13:06;;;;;;;;;51.50;41.25;;;;;8.95;62.96;102331.53;5000280;28;45729;-84
2021/11/09 07:15:31;;;;;;;;;53.00;43.50;;;;;9.02;63.31;102341.53;5000763;28;45384;-87
2021/11/09 07:17:57;;;;;;;;;51.50;42.75;;;;;9.02;62.83;102335.44;4997051;28;46197;-84
2021/11/09 07:20:23;;;;;;;;;54.75;43.25;;;;;9.06;63.16;102340.09;5013482;28;45396;-86
2021/11/09 07:22:49;;;;;;;;;52.00;43.00;;;;;9.07;62.81;102339.28;5019638;28;45235;-87
2021/11/09 07:25:17;;;;;;;;;58.75;45.25;;;;;9.15;62.82;102348.53;5000977;28;45530;-87
2021/11/09 07:27:43;;;;;;;;;54.00;44.00;;;;;9.12;62.94;102325.94;5017413;28;45385;-87
2021/11/09 07:30:12;;;;;;;;;55.00;44.50;;;;;9.10;62.62;102324.03;5018668;28;45387;-88
2021/11/09 07:32:39;;;;;;;;;57.50;46.25;;;;;9.25;62.51;102350.13;5016971;28;45372;-86
2021/11/09 07:35:07;;;;;;;;;56.25;44.50;;;;;9.17;62.43;102338.31;5016296;28;45396;-91
2021/11/09 07:37:33;;;;;;;;;61.00;47.25;;;;;9.25;62.87;102350.13;4997467;28;47338;-84
2021/11/09 07:39:59;;;;;;;;;57.75;46.00;;;;;9.24;62.63;102349.22;5017603;28;45336;-85
2021/11/09 07:42:25;;;;;;;;;56.50;46.00;;;;;9.26;62.27;102359.69;5022291;28;45458;-84
2021/11/09 07:44:53;;;;;;;;;59.25;48.00;;;;;9.24;62.40;102356.06;5021595;28;45313;-86
2021/11/09 07:47:19;;;;;;;;;57.00;45.75;;;;;9.22;62.50;102361.13;5020093;28;45418;-85
2021/11/09 07:49:46;;;;;;;;;60.75;47.00;;;;;9.25;62.18;102370.81;5002307;28;45540;-85
2021/11/09 07:52:12;;;;;;;;;61.50;49.50;;;;;9.24;62.58;102375.06;5001606;28;45340;-84
2021/11/09 07:54:45;;;;;;;;;27.75;20.00;;;;;9.23;62.35;102375.84;5000403;28;45611;-86
2021/11/09 07:57:13;;;;;;;;;55.00;45.25;;;;;9.23;62.20;102387.88;5016958;28;46792;-84
2021/11/09 07:59:48;;;;;;;;;54.00;45.00;;;;;9.19;62.25;102384.16;4998335;28;45360;-84
2021/11/09 08:02:26;;;;;;;;;61.75;48.00;;;;;9.21;62.23;102385.19;5018095;28;45352;-88
2021/11/09 08:05:00;;;;;;;;;57.00;46.75;;;;;9.22;62.21;102388.66;5016317;28;45368;-84
2021/11/09 08:10:25;;;;;;;;;60.00;48.50;;;;;9.17;62.12;102382.25;4983304;28;45757;-84
2021/11/09 08:12:50;;;;;;;;;58.00;47.25;;;;;9.21;62.29;102386.84;5013334;28;45809;-83
2021/11/09 08:15:16;;;;;;;;;60.00;45.75;;;;;9.19;62.22;102385.81;5001049;28;45603;-83
2021/11/09 08:17:42;;;;;;;;;60.00;46.75;;;;;9.18;62.49;102391.81;5002982;28;46800;-84
2021/11/09 08:20:08;;;;;;;;;57.75;48.50;;;;;9.20;62.20;102385.97;5024621;28;45633;-82
2021/11/09 08:22:33;;;;;;;;;60.25;47.50;;;;;9.24;62.23;102400.00;5025144;28;45494;-81
2021/11/09 08:24:59;;;;;;;;;58.75;47.75;;;;;9.20;62.38;102393.72;5026182;28;45487;-81
2021/11/09 08:27:25;;;;;;;;;62.50;49.00;;;;;9.21;62.37;102398.09;5007647;28;46984;-83
2021/11/09 08:29:51;;;;;;;;;61.25;49.75;;;;;9.25;62.54;102399.22;5021985;28;45353;-85
2021/11/09 08:32:20;;;;;;;;;63.25;49.50;;;;;9.29;62.65;102397.00;4999882;28;45554;-84
2021/11/09 08:34:46;;;;;;;;;60.00;47.50;;;;;9.31;62.64;102383.28;5016256;28;45573;-82
2021/11/09 08:37:11;;;;;;;;;58.75;46.00;;;;;9.36;62.39;102394.84;5015869;28;46414;-84
2021/11/09 08:39:41;;;;;;;;;71.00;53.50;;;;;9.34;62.30;102399.91;5018362;28;45539;-84
2021/11/09 08:44:52;;;;;;;;;61.50;50.00;;;;;9.38;62.47;102389.03;5039235;28;45432;-84
2021/11/09 08:47:24;;;;;;;;;58.75;49.00;;;;;9.44;62.49;102386.91;5054456;28;46894;-91
2021/11/09 08:49:51;;;;;;;;;65.00;50.00;;;;;9.44;62.24;102375.69;5020152;28;45789;-85
2021/11/09 08:52:17;;;;;;;;;55.75;46.75;;;;;9.53;62.39;102396.13;5020377;28;45392;-86
2021/11/09 09:05:43;;;;;;;;;64.50;49.25;;;;;9.66;62.66;102387.63;5015512;28;45354;-85
2021/11/09 09:08:10;;;;;;;;;59.50;46.50;;;;;9.74;62.57;102395.13;5016799;28;46314;-85
2021/11/09 09:10:36;;;;;;;;;62.75;48.50;;;;;9.78;62.50;102393.66;5016719;28;45665;-82
2021/11/09 09:13:02;;;;;;;;;61.00;48.50;;;;;9.85;62.66;102395.94;5016557;28;45465;-82
2021/11/09 09:15:28;;;;;;;;;63.50;48.50;;;;;9.88;62.35;102390.06;5016915;28;45452;-83
2021/11/09 09:17:53;;;;;;;;;47.75;36.00;;;;;9.94;62.46;102389.63;5016772;28;46248;-84
2021/11/09 09:20:41;;;;;;;;;62.00;49.75;;;;;9.93;62.31;102385.22;5016663;28;45472;-83
2021/11/09 09:23:47;;;;;;;;;61.25;48.25;;;;;9.98;62.28;102389.06;4998666;28;45366;-84
2021/11/09 09:26:16;;;;;;;;;62.25;48.00;;;;;10.03;62.25;102393.78;5013252;28;45325;-83
2021/11/09 09:55:50;;;;;;;;;60.75;48.00;;;;;10.34;62.05;102384.72;5016100;28;45511;-82
2021/11/09 09:58:16;;;;;;;;;58.50;48.00;;;;;10.38;62.02;102386.78;5017338;28;45574;-82
2021/11/09 10:00:43;;;;;;;;;62.50;49.25;;;;;10.40;62.43;102381.69;5016647;28;46213;-83
2021/11/09 10:03:09;;;;;;;;;62.00;49.75;;;;;10.44;62.16;102384.63;5016190;28;45919;-83
2021/11/09 10:05:38;;;;;;;;;56.25;47.00;;;;;10.49;62.16;102392.72;5016083;28;45293;-82
2021/11/09 10:08:20;;;;;;;;;58.50;48.25;;;;;10.47;62.25;102382.25;5001464;28;45230;-84
2021/11/09 10:10:47;;;;;;;;;59.75;46.25;;;;;10.53;62.12;102374.00;5017365;28;45414;-82
2021/11/09 10:13:20;;;;;;;;;63.00;50.50;;;;;10.59;62.16;102376.13;5002601;28;45364;-83
2021/11/09 10:15:52;;;;;;;;;63.25;50.25;;;;;10.66;61.88;102376.69;5018481;28;45536;-83
2021/11/09 10:18:20;;;;;;;;;61.00;47.75;;;;;10.68;61.70;102369.91;5017895;28;45476;-82
2021/11/09 10:20:49;;;;;;;;;62.00;50.75;;;;;10.72;61.67;102368.44;5015693;28;46379;-85
2021/11/09 10:23:19;;;;;;;;;60.75;46.50;;;;;10.76;61.81;102370.44;5001351;28;45327;-84
2021/11/09 10:25:46;;;;;;;;;64.25;51.00;;;;;10.77;61.38;102360.97;4997767;28;45509;-82
2021/11/09 10:28:21;;;;;;;;;60.00;47.50;;;;;10.79;61.49;102362.00;5017278;28;45323;-83
2021/11/09 10:30:56;;;;;;;;;61.00;49.00;;;;;10.88;61.37;102361.69;5018789;28;46453;-85
2021/11/09 10:33:27;;;;;;;;;59.75;47.50;;;;;10.93;61.41;102363.81;4998567;28;46908;-86
2021/11/09 10:35:54;;;;;;;;;59.75;48.25;;;;;10.95;61.02;102363.94;4997770;28;45377;-84
2021/11/09 10:38:31;;;;;;;;;55.00;45.00;;;;;10.97;61.17;102368.44;5017455;28;45656;-87
2021/11/09 10:40:59;;;;;;;;;62.00;49.00;;;;;11.00;61.12;102359.94;4998525;28;46834;-88
2021/11/09 10:43:27;;;;;;;;;50.00;37.75;;;;;11.02;60.86;102360.03;4997634;28;45445;-87
2021/11/09 10:45:52;;;;;;;;;60.25;48.00;;;;;11.00;60.92;102359.94;4998624;28;45562;-87
2021/11/09 10:48:21;;;;;;;;;57.00;45.25;;;;;11.06;61.04;102355.22;4995701;28;45506;-87
2021/11/09 10:50:55;;;;;;;;;54.75;44.25;;;;;11.08;60.78;102348.41;4996987;28;46715;-88
2021/11/09 10:53:35;;;;;;;;;58.50;46.00;;;;;11.08;60.75;102337.16;5002715;28;45368;-87
2021/11/09 10:56:20;;;;;;;;;56.00;47.50;;;;;11.13;60.42;102336.66;5025413;28;44820;-88
2021/11/09 11:04:11;;;;;;;;;59.00;45.00;;;;;11.33;59.85;102346.59;5017470;28;46005;-82
2021/11/09 11:06:46;;;;;;;;;51.00;43.75;;;;;11.33;60.00;102334.50;5016640;28;45381;-81
2021/11/09 11:09:12;;;;;;;;;57.00;44.75;;;;;11.40;59.99;102339.28;4999122;28;45651;-90
2021/11/09 11:11:47;;;;;;;;;56.25;44.25;;;;;11.37;59.58;102326.13;5004271;28;46981;-91
2021/11/09 11:14:17;;;;;;;;;56.00;44.00;;;;;11.45;60.09;102332.72;5003575;28;45948;-84
2021/11/09 11:16:55;;;;;;;;;55.00;44.50;;;;;11.46;60.05;102318.97;4997526;28;45329;-88
2021/11/09 11:19:29;;;;;;;;;58.25;45.50;;;;;11.60;59.95;102318.97;5002282;28;45966;-84
2021/11/09 11:21:56;;;;;;;;;51.75;43.00;;;;;11.75;59.88;102314.75;5015093;28;45479;-87
2021/11/09 11:24:22;;;;;;;;;59.00;45.75;;;;;11.87;59.16;102306.88;4998987;28;46649;-86
2021/11/09 11:26:50;;;;;;;;;53.25;43.00;;;;;12.03;58.78;102308.78;4998815;28;45269;-87
2021/11/09 11:29:22;;;;;;;;;56.50;44.25;;;;;12.03;58.30;102300.06;4984004;28;45443;-86
2021/11/09 11:31:51;;;;;;;;;51.50;43.00;;;;;12.12;58.22;102307.53;5014496;28;46366;-87
2021/11/09 11:34:18;;;;;;;;;56.25;45.00;;;;;12.18;58.15;102307.91;4996618;28;45918;-82
2021/11/09 11:36:44;;;;;;;;;54.75;43.75;;;;;12.24;58.06;102313.50;5017827;28;45472;-84
2021/11/09 11:39:11;;;;;;;;;55.50;42.25;;;;;12.23;58.00;102310.00;5018547;28;45586;-90
2021/11/09 11:41:40;;;;;;;;;43.00;35.00;;;;;12.27;57.69;102305.88;5002608;28;47780;-85
2021/11/09 11:44:08;;;;;;;;;47.00;35.00;;;;;12.30;57.53;102295.69;5006641;28;45686;-91
2021/11/09 11:46:34;;;;;;;;;46.25;34.75;;;;;12.36;56.99;102297.78;5009700;28;45504;-91
2021/11/09 11:49:10;;;;;;;;;39.00;32.25;;;;;12.32;56.87;102280.19;5008308;28;45474;-92
2021/11/09 11:51:59;;;;;;;;;43.25;37.25;;;;;12.30;56.78;102274.03;5006403;28;47044;-90
2021/11/09 11:54:44;;;;;;;;;40.75;34.25;;;;;12.44;56.62;102280.06;5007837;28;45267;-90
2021/11/09 11:57:11;;;;;;;;;43.25;34.50;;;;;12.49;56.45;102281.22;5007340;28;45399;-91
2021/11/09 11:59:36;;;;;;;;;40.50;34.25;;;;;12.51;56.18;102274.44;5010932;28;45570;-91
2021/11/09 12:02:09;;;;;;;;;39.25;35.00;;;;;12.48;56.21;102256.06;5006179;28;47268;-91
2021/11/09 12:04:40;;;;;;;;;43.25;34.75;;;;;12.53;56.22;102265.03;5005681;28;45308;-91
2021/11/09 12:07:08;;;;;;;;;45.25;37.25;;;;;12.53;56.31;102259.84;5005758;28;45390;-89
2021/11/09 12:09:39;;;;;;;;;45.00;37.25;;;;;12.51;56.52;102253.66;5006702;28;45290;-90
2021/11/09 12:12:21;;;;;;;;;44.50;35.00;;;;;12.66;55.94;102257.19;5004954;28;48062;-90
2021/11/09 12:14:58;;;;;;;;;41.00;35.00;;;;;12.70;55.75;102255.66;5004635;28;45424;-88
2021/11/09 12:17:39;;;;;;;;;36.25;32.00;;;;;12.78;55.58;102253.50;5025120;28;45443;-91
2021/11/09 12:20:14;;;;;;;;;36.25;33.00;;;;;12.83;55.29;102252.06;5006416;28;45845;-90
2021/11/09 12:22:49;;;;;;;;;34.75;32.50;;;;;12.74;55.13;102215.16;5005786;28;47167;-91
2021/11/09 12:25:33;;;;;;;;;34.50;31.75;;;;;13.01;55.17;102239.25;5005118;28;45587;-91
2021/11/09 12:28:01;;;;;;;;;26.25;19.75;;;;;13.09;53.81;102237.09;5004967;28;45301;-92
2021/11/09 12:30:36;;;;;;;;;20.75;17.75;;;;;13.18;53.59;102234.09;5008436;28;44822;-92
2021/11/09 12:33:16;;;;;;;;;28.50;21.25;;;;;13.25;53.80;102228.47;5011171;28;47620;-89
2021/11/09 12:35:44;;;;;;;;;25.50;24.75;;;;;13.27;53.63;102214.72;5010521;28;45905;-89
2021/11/09 12:38:30;;;;;;;;;29.50;26.75;;;;;13.43;53.89;102223.44;5008061;28;45237;-89
2021/11/09 12:40:58;;;;;;;;;31.50;26.00;;;;;13.50;53.30;102214.28;5008985;28;45305;-90
2021/11/09 12:43:44;;;;;;;;;28.25;25.00;;;;;13.62;52.29;102220.13;5005715;28;47601;-90
2021/11/09 12:46:21;;;;;;;;;24.00;21.75;;;;;13.69;52.59;102216.16;5004766;28;45274;-89
2021/11/09 12:48:57;;;;;;;;;26.00;22.00;;;;;13.77;52.45;102223.59;5005733;28;45360;-86
2021/11/09 12:51:27;;;;;;;;;17.75;16.00;;;;;13.65;52.17;102183.88;5007283;28;45518;-89
2021/11/09 12:53:56;;;;;;;;;23.50;23.00;;;;;13.86;51.65;102212.78;5004046;28;46998;-90
2021/11/09 12:56:35;;;;;;;;;20.50;16.50;;;;;14.05;52.00;102217.25;5005357;28;45828;-89
2021/11/09 12:59:15;;;;;;;;;20.75;19.00;;;;;14.10;50.98;102212.28;5003943;28;45345;-88
2021/11/09 13:04:27;;;;;;;;;17.25;16.25;;;;;14.29;50.71;102215.88;5022560;28;46070;-92
2021/11/09 13:09:42;;;;;;;;;17.25;15.00;;;;;14.29;50.09;102187.22;5025379;28;45846;-89
2021/11/09 13:12:11;;;;;;;;;14.75;14.25;;;;;14.45;49.41;102202.81;5005318;28;45329;-89
2021/11/09 13:14:54;;;;;;;;;18.50;16.50;;;;;14.45;49.61;102189.78;5021005;28;45815;-91
2021/11/09 13:17:23;;;;;;;;;19.00;17.50;;;;;14.54;49.16;102202.38;5007815;28;45923;-92
2021/11/09 13:19:59;;;;;;;;;16.75;15.25;;;;;14.49;49.05;102176.09;5011778;28;45245;-90
2021/11/09 13:22:29;;;;;;;;;21.25;19.00;;;;;14.57;48.40;102173.88;5014776;28;45676;-93
2021/11/09 13:25:30;;;;;;;;;18.75;15.50;;;;;14.71;48.54;102182.44;5011284;28;46977;-92
2021/11/09 13:27:56;;;;;;;;;20.75;15.25;;;;;14.81;47.24;102187.28;5003739;28;45253;-91
2021/11/09 13:30:25;;;;;;;;;15.75;13.75;;;;;14.85;47.23;102193.53;5002948;28;45269;-90
2021/11/09 13:32:53;;;;;;;;;18.50;14.00;;;;;14.91;47.12;102199.03;5002881;28;45643;-91
2021/11/09 13:35:34;;;;;;;;;14.50;13.50;;;;;14.86;47.40;102183.16;5004054;28;46828;-89
2021/11/09 13:38:21;;;;;;;;;15.00;12.50;;;;;15.05;47.28;102199.75;5004247;28;45942;-89
2021/11/09 13:40:51;;;;;;;;;19.50;16.25;;;;;15.12;46.71;102193.06;5001748;28;45337;-91
2021/11/09 13:43:23;;;;;;;;;23.75;18.75;;;;;15.21;47.05;102187.41;5019618;28;45258;-89
2021/11/09 13:46:01;;;;;;;;;16.25;14.25;;;;;15.31;46.01;102179.19;5020182;28;45721;-90
2021/11/09 13:48:29;;;;;;;;;12.50;12.50;;;;;15.44;45.80;102184.19;5002129;28;45321;-88